createdAt,value
2018-12-07T00:03:45.100Z,2.3
2018-12-07T00:08:42.344Z,2.5
2018-12-07T00:13:39.421Z,2.5
2018-12-07T00:18:36.665Z,-3.6
2018-12-07T00:23:33.802Z,2.4
2018-12-07T00:28:30.986Z,2.2
2018-12-07T00:33:27.790Z,2.2
2018-12-07T00:38:25.052Z,2.2
2018-12-07T00:43:22.521Z,2.3
2018-12-07T00:48:19.715Z,2.3
2018-12-07T00:53:16.866Z,2.3
2018-12-07T00:58:13.998Z,2.3
2018-12-07T01:03:11.227Z,2.1
2018-12-07T01:08:08.471Z,2
2018-12-07T01:13:05.760Z,2
2018-12-07T01:18:03.136Z,1.9
2018-12-07T01:23:02.406Z,1.9
2018-12-07T01:27:59.123Z,1.8
2018-12-07T01:32:56.322Z,1.8
2018-12-07T01:37:53.462Z,1.7
2018-12-07T01:42:50.456Z,1.7
2018-12-07T01:47:48.219Z,1.1
2018-12-07T01:52:45.184Z,1.7
2018-12-07T01:57:42.412Z,1.6
2018-12-07T02:02:39.347Z,1.6
2018-12-07T02:07:36.613Z,1.6
2018-12-07T02:12:33.471Z,1.7
2018-12-07T02:17:30.513Z,1.7
2018-12-07T02:22:27.723Z,1.5
2018-12-07T02:27:25.296Z,1.6
2018-12-07T02:32:22.324Z,1.6
2018-12-07T02:42:17.159Z,1
2018-12-07T02:47:14.027Z,1.6
2018-12-07T02:52:11.229Z,1.7
2018-12-07T02:57:08.462Z,1.6
2018-12-07T03:02:05.599Z,1.4
2018-12-07T03:07:02.719Z,1.3
2018-12-07T03:11:59.685Z,1.3
2018-12-07T03:16:56.730Z,1.3
2018-12-07T03:21:53.815Z,1.3
2018-12-07T03:26:51.110Z,1
2018-12-07T03:31:48.096Z,1.2
2018-12-07T03:36:45.145Z,1.1
2018-12-07T03:41:41.798Z,1.1
2018-12-07T03:46:38.930Z,1.1
2018-12-07T03:51:36.146Z,0.9
2018-12-07T03:56:33.354Z,1
2018-12-07T04:01:30.723Z,1
2018-12-07T04:06:28.082Z,1
2018-12-07T04:11:25.295Z,1
2018-12-07T04:16:22.443Z,0.9
2018-12-07T04:21:19.468Z,0.9
2018-12-07T04:26:16.913Z,0.9
2018-12-07T04:31:14.312Z,0.8
2018-12-07T04:36:11.401Z,0.9
2018-12-07T04:41:08.502Z,0.8
2018-12-07T04:46:05.689Z,0.8
2018-12-07T04:51:02.985Z,0.8
2018-12-07T04:56:00.315Z,0.9
2018-12-07T05:00:57.756Z,0.9
2018-12-07T05:05:55.015Z,0.8
2018-12-07T05:10:52.190Z,0.9
2018-12-07T05:15:49.521Z,1
2018-12-07T05:20:47.315Z,1.1
2018-12-07T05:25:44.418Z,1.1
2018-12-07T05:30:41.047Z,1.1
2018-12-07T05:35:38.121Z,1.2
2018-12-07T05:40:35.296Z,1.1
2018-12-07T05:45:33.102Z,0.6
2018-12-07T05:50:29.970Z,1.2
2018-12-07T05:55:27.445Z,1.2
2018-12-07T06:00:24.597Z,1.3
2018-12-07T06:05:21.734Z,1
2018-12-07T06:10:18.952Z,0.9
2018-12-07T06:15:15.825Z,0.9
2018-12-07T06:20:12.706Z,0.6
2018-12-07T06:25:10.043Z,0.7
2018-12-07T06:30:07.194Z,0.7
2018-12-07T06:35:04.239Z,0.6
2018-12-07T06:40:01.296Z,0.6
2018-12-07T06:44:58.157Z,0.5
2018-12-07T06:49:54.745Z,0.5
2018-12-07T06:54:52.295Z,0.4
2018-12-07T06:59:49.753Z,0.5
2018-12-07T07:04:47.055Z,0.6
2018-12-07T07:09:43.630Z,0.6
2018-12-07T07:14:40.781Z,0.7
2018-12-07T07:19:38.057Z,-0.4
2018-12-07T07:24:35.151Z,0.6
2018-12-07T07:29:32.405Z,0.8
2018-12-07T07:34:28.850Z,0.7
2018-12-07T07:39:26.318Z,0.6
2018-12-07T07:44:23.471Z,0.7
2018-12-07T07:49:20.810Z,0.7
2018-12-07T07:54:18.165Z,0.7
2018-12-07T07:59:15.416Z,0.8
2018-12-07T08:04:12.593Z,0.9
2018-12-07T08:09:09.437Z,0.6
2018-12-07T08:14:06.478Z,1
2018-12-07T08:19:03.355Z,1
2018-12-07T08:24:00.442Z,1.1
2018-12-07T08:28:57.665Z,1.2
2018-12-07T08:33:54.576Z,1.3
2018-12-07T08:38:51.795Z,1.4
2018-12-07T08:43:49.102Z,1.5
2018-12-07T08:48:46.325Z,1.5
2018-12-07T08:53:43.747Z,1.5
2018-12-07T08:58:40.995Z,1.4
2018-12-07T09:03:38.191Z,1.6
2018-12-07T09:08:35.167Z,1.6
2018-12-07T09:18:29.017Z,1.7
2018-12-07T09:23:26.363Z,1.7
2018-12-07T09:28:23.965Z,1.3
2018-12-07T09:33:20.919Z,1.8
2018-12-07T09:38:18.110Z,1.9
2018-12-07T09:43:15.200Z,1.9
2018-12-07T09:48:12.460Z,2
2018-12-07T09:53:10.116Z,2.2
2018-12-07T09:58:07.427Z,2.3
2018-12-07T10:03:04.708Z,2.5
2018-12-07T10:08:02.067Z,2.7
2018-12-07T10:13:00.097Z,2.8
2018-12-07T10:17:57.250Z,3
2018-12-07T10:22:54.729Z,-0.2
2018-12-07T10:27:51.969Z,3.4
2018-12-07T10:32:49.344Z,3.5
2018-12-07T10:37:47.058Z,3.6
2018-12-07T10:42:44.267Z,3.7
2018-12-07T10:47:41.368Z,3.8
2018-12-07T10:52:38.994Z,3.8
2018-12-07T10:57:36.224Z,3.8
2018-12-07T11:02:33.676Z,3.7
2018-12-07T11:07:30.849Z,4
2018-12-07T11:12:28.160Z,4.2
2018-12-07T11:17:25.651Z,4.3
2018-12-07T11:22:23.040Z,4.4
2018-12-07T11:27:19.884Z,4.5
2018-12-07T11:32:17.504Z,4.7
2018-12-07T11:37:15.254Z,4.9
2018-12-07T11:42:12.186Z,5.1
2018-12-07T11:47:09.815Z,4.7
2018-12-07T11:52:07.121Z,5.4
2018-12-07T11:57:04.546Z,5.7
2018-12-07T12:02:01.822Z,5.8
2018-12-07T12:06:58.981Z,6
2018-12-07T12:11:56.210Z,6.2
2018-12-07T12:16:53.335Z,6.3
2018-12-07T12:21:50.808Z,6.4
2018-12-07T12:26:48.073Z,6.5
2018-12-07T12:31:45.208Z,6.6
2018-12-07T12:36:42.455Z,6.7
2018-12-07T12:41:46.535Z,6.7
2018-12-07T12:46:37.254Z,6.7
2018-12-07T12:51:34.446Z,6.6
2018-12-07T12:56:31.717Z,6.6
2018-12-07T13:01:28.623Z,6.7
2018-12-07T13:06:25.895Z,4.8
2018-12-07T13:11:23.002Z,6.6
2018-12-07T13:16:20.547Z,6.7
2018-12-07T13:21:18.179Z,6.8
2018-12-07T13:26:15.820Z,6.9
2018-12-07T13:31:13.117Z,6.9
2018-12-07T13:36:10.308Z,6.5
2018-12-07T13:41:07.618Z,6.9
2018-12-07T13:46:04.864Z,6.8
2018-12-07T13:51:02.309Z,6.8
2018-12-07T13:55:59.463Z,6.2
2018-12-07T14:00:56.622Z,6.7
2018-12-07T14:05:53.747Z,6.7
2018-12-07T14:10:50.728Z,6.6
2018-12-07T14:15:47.761Z,6.6
2018-12-07T14:20:44.658Z,6.6
2018-12-07T14:25:42.093Z,6.6
2018-12-07T14:30:39.579Z,6.5
2018-12-07T14:35:36.751Z,6.2
2018-12-07T14:40:33.942Z,6.5
2018-12-07T14:45:30.887Z,6.5
2018-12-07T14:50:28.295Z,6.5
2018-12-07T14:55:25.674Z,6.5
2018-12-07T15:00:22.799Z,6.4
2018-12-07T15:05:19.647Z,6.4
2018-12-07T15:10:16.834Z,6.3
2018-12-07T15:15:14.197Z,6.3
2018-12-07T15:20:11.273Z,6.3
2018-12-07T15:25:08.533Z,6.2
2018-12-07T15:30:05.550Z,6.1
2018-12-07T15:35:02.953Z,5.9
2018-12-07T15:39:59.900Z,5.9
2018-12-07T15:44:56.857Z,5.9
2018-12-07T15:49:54.027Z,5.8
2018-12-07T15:54:50.924Z,5.8
2018-12-07T15:59:48.305Z,5.6
2018-12-07T16:04:45.686Z,5.6
2018-12-07T16:09:42.879Z,5.5
2018-12-07T16:14:40.228Z,5.5
2018-12-07T16:19:37.367Z,5.5
2018-12-07T16:24:34.571Z,5.5
2018-12-07T16:29:32.117Z,5.5
2018-12-07T16:34:28.995Z,5.5
2018-12-07T16:39:26.145Z,5.5
2018-12-07T16:44:23.356Z,5.5
2018-12-07T16:49:20.618Z,5.5
2018-12-07T16:54:17.914Z,5.5
2018-12-07T16:59:15.046Z,5.5
2018-12-07T17:04:11.704Z,5.5
2018-12-07T17:09:09.007Z,5.4
2018-12-07T17:14:06.083Z,5.4
2018-12-07T17:19:03.305Z,5.3
2018-12-07T17:23:59.893Z,5.3
2018-12-07T17:28:57.699Z,5.2
2018-12-07T17:33:54.666Z,5.2
2018-12-07T17:38:51.789Z,5.2
2018-12-07T17:43:49.233Z,5.1
2018-12-07T17:48:46.426Z,4.9
2018-12-07T17:53:43.817Z,5
2018-12-07T17:58:40.664Z,5.1
2018-12-07T18:03:38.168Z,5.1
2018-12-07T18:08:35.264Z,5
2018-12-07T18:13:32.420Z,5
2018-12-07T18:18:29.591Z,4.9
2018-12-07T18:23:27.063Z,4.8
2018-12-07T18:28:24.522Z,4.9
2018-12-07T18:33:21.360Z,4.8
2018-12-07T18:38:18.561Z,4.8
2018-12-07T18:43:15.551Z,4.7
2018-12-07T18:48:12.505Z,4.7
2018-12-07T18:53:09.281Z,4.6
2018-12-07T18:58:06.521Z,4.6
2018-12-07T19:03:03.565Z,4.6
2018-12-07T19:08:01.347Z,4.6
2018-12-07T19:13:00.460Z,4.4
2018-12-07T19:17:56.375Z,4.5
2018-12-07T19:22:53.547Z,4.5
2018-12-07T19:27:50.719Z,4.5
2018-12-07T19:32:48.044Z,4.5
2018-12-07T19:37:45.358Z,4.4
2018-12-07T19:42:42.634Z,4.4
2018-12-07T19:47:39.745Z,4.5
2018-12-07T19:52:36.867Z,4.2
2018-12-07T19:57:34.283Z,4.5
2018-12-07T20:02:31.634Z,4.5
2018-12-07T20:07:29.130Z,4.4
2018-12-07T20:12:26.358Z,4.3
2018-12-07T20:17:23.384Z,4.3
2018-12-07T20:22:20.700Z,4.3
2018-12-07T20:27:18.465Z,4.3
2018-12-07T20:32:15.440Z,4.1
2018-12-07T20:37:12.600Z,4.3
2018-12-07T20:42:09.613Z,4.3
2018-12-07T20:47:06.603Z,4
2018-12-07T20:52:03.712Z,4.2
2018-12-07T20:57:01.257Z,4.2
2018-12-07T21:01:58.289Z,3.7
2018-12-07T21:06:55.198Z,4.3
2018-12-07T21:11:52.362Z,4.2
2018-12-07T21:16:49.741Z,4.2
2018-12-07T21:21:47.156Z,4.2
2018-12-07T21:26:44.181Z,4.2
2018-12-07T21:31:41.257Z,4.1
2018-12-07T21:36:38.524Z,4.1
2018-12-07T21:41:35.702Z,4
2018-12-07T21:46:33.055Z,4
2018-12-07T21:51:30.388Z,3.9
2018-12-07T21:56:27.871Z,3.9
2018-12-07T22:01:24.910Z,3.8
2018-12-07T22:06:21.955Z,3.7
2018-12-07T22:11:19.127Z,3.5
2018-12-07T22:16:16.084Z,3.6
2018-12-07T22:21:12.724Z,3.1
2018-12-07T22:26:10.059Z,3.6
2018-12-07T22:31:07.138Z,3.3
2018-12-07T22:36:04.497Z,3.4
2018-12-07T22:41:02.080Z,3.4
2018-12-07T22:45:59.221Z,3.4
2018-12-07T22:50:56.413Z,3.4
2018-12-07T22:55:53.946Z,3.4
2018-12-07T23:00:51.111Z,3.3
2018-12-07T23:05:48.499Z,3.4
2018-12-07T23:10:45.586Z,3.3
2018-12-07T23:15:42.988Z,3.3
2018-12-07T23:20:40.312Z,3.3
2018-12-07T23:25:37.498Z,3.3
2018-12-07T23:30:34.678Z,3.3
2018-12-07T23:35:31.881Z,3.3
2018-12-07T23:40:29.145Z,3.3
2018-12-07T23:45:26.978Z,3.4
2018-12-07T23:50:24.176Z,3.3
2018-12-07T23:55:21.720Z,3.3
